sensor_id;sensor_type;location;lat;lon;timestamp;P1;durP1;ratioP1;P2;durP2;ratioP2
5022;SDS011;2530;47.990;7.866;2023-04-03T00:01:53;5.80;;;5.30;;
5022;SDS011;2530;47.990;7.866;2023-04-03T00:04:19;5.70;;;5.20;;
5022;SDS011;2530;47.990;7.866;2023-04-03T00:06:45;5.60;;;5.10;;
5022;SDS011;2530;47.990;7.866;2023-04-03T00:09:10;5.93;;;5.40;;
5022;SDS011;2530;47.990;7.866;2023-04-03T00:11:36;5.10;;;4.70;;
5022;SDS011;2530;47.990;7.866;2023-04-03T00:14:01;5.63;;;5.13;;
5022;SDS011;2530;47.990;7.866;2023-04-03T00:16:27;6.20;;;5.10;;
5022;SDS011;2530;47.990;7.866;2023-04-03T00:18:52;5.40;;;4.90;;
5022;SDS011;2530;47.990;7.866;2023-04-03T00:21:18;5.30;;;4.80;;
5022;SDS011;2530;47.990;7.866;2023-04-03T00:23:43;5.75;;;5.15;;
5022;SDS011;2530;47.990;7.866;2023-04-03T00:26:09;5.65;;;5.25;;
5022;SDS011;2530;47.990;7.866;2023-04-03T00:28:35;5.40;;;5.00;;
5022;SDS011;2530;47.990;7.866;2023-04-03T00:31:00;5.40;;;5.00;;
5022;SDS011;2530;47.990;7.866;2023-04-03T00:33:26;5.20;;;4.80;;
5022;SDS011;2530;47.990;7.866;2023-04-03T00:35:51;5.57;;;5.07;;
5022;SDS011;2530;47.990;7.866;2023-04-03T00:38:17;4.80;;;4.40;;
5022;SDS011;2530;47.990;7.866;2023-04-03T00:40:44;4.73;;;4.40;;
5022;SDS011;2530;47.990;7.866;2023-04-03T00:43:13;4.32;;;4.03;;
5022;SDS011;2530;47.990;7.866;2023-04-03T00:45:40;5.65;;;4.40;;
5022;SDS011;2530;47.990;7.866;2023-04-03T00:48:09;4.70;;;4.30;;
5022;SDS011;2530;47.990;7.866;2023-04-03T00:50:39;3.97;;;3.67;;
5022;SDS011;2530;47.990;7.866;2023-04-03T00:53:06;3.83;;;3.45;;
5022;SDS011;2530;47.990;7.866;2023-04-03T00:55:34;4.30;;;3.90;;
5022;SDS011;2530;47.990;7.866;2023-04-03T00:58:01;5.25;;;4.00;;
5022;SDS011;2530;47.990;7.866;2023-04-03T01:00:28;4.90;;;4.50;;
5022;SDS011;2530;47.990;7.866;2023-04-03T01:02:53;4.50;;;4.10;;
5022;SDS011;2530;47.990;7.866;2023-04-03T01:05:19;4.13;;;3.72;;
5022;SDS011;2530;47.990;7.866;2023-04-03T01:07:46;3.60;;;3.30;;
5022;SDS011;2530;47.990;7.866;2023-04-03T01:10:14;3.80;;;3.50;;
5022;SDS011;2530;47.990;7.866;2023-04-03T01:12:43;3.47;;;3.17;;
5022;SDS011;2530;47.990;7.866;2023-04-03T01:15:15;4.00;;;3.70;;
5022;SDS011;2530;47.990;7.866;2023-04-03T01:17:44;3.63;;;3.33;;
5022;SDS011;2530;47.990;7.866;2023-04-03T01:25:47;3.95;;;3.65;;
5022;SDS011;2530;47.990;7.866;2023-04-03T01:28:20;3.67;;;3.37;;
5022;SDS011;2530;47.990;7.866;2023-04-03T01:31:31;3.80;;;3.50;;
5022;SDS011;2530;47.990;7.866;2023-04-03T01:33:38;3.80;;;3.50;;
5022;SDS011;2530;47.990;7.866;2023-04-03T01:36:04;4.40;;;3.20;;
5022;SDS011;2530;47.990;7.866;2023-04-03T01:38:31;3.90;;;3.60;;
5022;SDS011;2530;47.990;7.866;2023-04-03T01:40:56;3.60;;;3.30;;
5022;SDS011;2530;47.990;7.866;2023-04-03T01:43:22;3.70;;;3.40;;
5022;SDS011;2530;47.990;7.866;2023-04-03T01:45:48;2.92;;;2.60;;
5022;SDS011;2530;47.990;7.866;2023-04-03T01:48:14;3.35;;;3.05;;
5022;SDS011;2530;47.990;7.866;2023-04-03T01:50:40;3.43;;;2.90;;
5022;SDS011;2530;47.990;7.866;2023-04-03T01:53:06;4.30;;;2.90;;
5022;SDS011;2530;47.990;7.866;2023-04-03T01:55:32;3.10;;;2.90;;
5022;SDS011;2530;47.990;7.866;2023-04-03T01:57:57;2.63;;;2.43;;
5022;SDS011;2530;47.990;7.866;2023-04-03T02:00:23;3.57;;;2.93;;
5022;SDS011;2530;47.990;7.866;2023-04-03T02:02:48;3.13;;;2.83;;
5022;SDS011;2530;47.990;7.866;2023-04-03T02:05:14;3.30;;;3.00;;
5022;SDS011;2530;47.990;7.866;2023-04-03T02:07:40;2.70;;;2.50;;
5022;SDS011;2530;47.990;7.866;2023-04-03T02:10:06;2.77;;;2.57;;
5022;SDS011;2530;47.990;7.866;2023-04-03T02:12:31;3.80;;;2.70;;
5022;SDS011;2530;47.990;7.866;2023-04-03T02:14:57;3.10;;;2.90;;
5022;SDS011;2530;47.990;7.866;2023-04-03T02:17:23;2.70;;;2.50;;
5022;SDS011;2530;47.990;7.866;2023-04-03T02:19:48;2.60;;;2.40;;
5022;SDS011;2530;47.990;7.866;2023-04-03T02:22:14;3.40;;;3.00;;
5022;SDS011;2530;47.990;7.866;2023-04-03T02:24:40;3.20;;;2.90;;
5022;SDS011;2530;47.990;7.866;2023-04-03T02:27:06;3.60;;;3.10;;
5022;SDS011;2530;47.990;7.866;2023-04-03T02:29:32;3.80;;;3.00;;
5022;SDS011;2530;47.990;7.866;2023-04-03T02:31:57;3.80;;;3.20;;
5022;SDS011;2530;47.990;7.866;2023-04-03T02:34:23;3.20;;;2.90;;
5022;SDS011;2530;47.990;7.866;2023-04-03T02:36:48;3.15;;;2.95;;
5022;SDS011;2530;47.990;7.866;2023-04-03T02:39:14;3.47;;;3.17;;
5022;SDS011;2530;47.990;7.866;2023-04-03T02:41:40;3.37;;;3.07;;
5022;SDS011;2530;47.990;7.866;2023-04-03T02:44:06;3.33;;;3.00;;
5022;SDS011;2530;47.990;7.866;2023-04-03T02:46:34;3.10;;;2.90;;
5022;SDS011;2530;47.990;7.866;2023-04-03T02:48:59;3.50;;;3.20;;
5022;SDS011;2530;47.990;7.866;2023-04-03T02:51:25;3.50;;;3.20;;
5022;SDS011;2530;47.990;7.866;2023-04-03T02:53:50;3.23;;;3.00;;
5022;SDS011;2530;47.990;7.866;2023-04-03T02:56:16;3.30;;;3.00;;
5022;SDS011;2530;47.990;7.866;2023-04-03T02:58:44;3.80;;;3.50;;
5022;SDS011;2530;47.990;7.866;2023-04-03T03:01:10;3.80;;;3.50;;
5022;SDS011;2530;47.990;7.866;2023-04-03T03:03:36;3.90;;;3.60;;
5022;SDS011;2530;47.990;7.866;2023-04-03T03:06:02;3.90;;;3.50;;
5022;SDS011;2530;47.990;7.866;2023-04-03T03:08:29;2.92;;;2.72;;
5022;SDS011;2530;47.990;7.866;2023-04-03T03:10:55;3.40;;;3.00;;
5022;SDS011;2530;47.990;7.866;2023-04-03T03:13:20;3.30;;;3.00;;
5022;SDS011;2530;47.990;7.866;2023-04-03T03:15:46;3.13;;;2.83;;
5022;SDS011;2530;47.990;7.866;2023-04-03T03:18:11;3.40;;;3.10;;
5022;SDS011;2530;47.990;7.866;2023-04-03T03:20:37;4.07;;;3.20;;
5022;SDS011;2530;47.990;7.866;2023-04-03T03:23:02;3.70;;;3.40;;
5022;SDS011;2530;47.990;7.866;2023-04-03T03:25:28;3.40;;;3.10;;
5022;SDS011;2530;47.990;7.866;2023-04-03T03:27:53;3.03;;;2.83;;
5022;SDS011;2530;47.990;7.866;2023-04-03T03:30:19;3.20;;;2.90;;
5022;SDS011;2530;47.990;7.866;2023-04-03T03:32:44;3.30;;;3.00;;
5022;SDS011;2530;47.990;7.866;2023-04-03T03:35:10;4.70;;;3.00;;
5022;SDS011;2530;47.990;7.866;2023-04-03T03:37:35;3.45;;;3.15;;
5022;SDS011;2530;47.990;7.866;2023-04-03T03:40:01;3.10;;;2.70;;
5022;SDS011;2530;47.990;7.866;2023-04-03T03:42:27;2.50;;;2.30;;
5022;SDS011;2530;47.990;7.866;2023-04-03T03:44:52;2.80;;;2.60;;
5022;SDS011;2530;47.990;7.866;2023-04-03T03:47:18;3.00;;;2.70;;
5022;SDS011;2530;47.990;7.866;2023-04-03T03:49:44;2.47;;;2.28;;
5022;SDS011;2530;47.990;7.866;2023-04-03T03:52:09;2.60;;;2.40;;
5022;SDS011;2530;47.990;7.866;2023-04-03T03:54:35;2.80;;;2.60;;
5022;SDS011;2530;47.990;7.866;2023-04-03T03:57:02;2.67;;;2.47;;
5022;SDS011;2530;47.990;7.866;2023-04-03T03:59:27;2.00;;;1.90;;
5022;SDS011;2530;47.990;7.866;2023-04-03T04:01:53;2.40;;;2.20;;
5022;SDS011;2530;47.990;7.866;2023-04-03T04:04:18;3.00;;;2.65;;
5022;SDS011;2530;47.990;7.866;2023-04-03T04:06:44;2.33;;;2.13;;
5022;SDS011;2530;47.990;7.866;2023-04-03T04:09:11;2.80;;;2.50;;
5022;SDS011;2530;47.990;7.866;2023-04-03T04:11:37;2.45;;;2.17;;
5022;SDS011;2530;47.990;7.866;2023-04-03T04:14:04;2.50;;;2.30;;
5022;SDS011;2530;47.990;7.866;2023-04-03T04:16:30;2.60;;;2.40;;
5022;SDS011;2530;47.990;7.866;2023-04-03T04:18:56;2.50;;;2.10;;
5022;SDS011;2530;47.990;7.866;2023-04-03T04:21:21;2.40;;;2.20;;
5022;SDS011;2530;47.990;7.866;2023-04-03T04:23:47;2.50;;;2.30;;
5022;SDS011;2530;47.990;7.866;2023-04-03T04:26:12;2.20;;;2.00;;
5022;SDS011;2530;47.990;7.866;2023-04-03T04:28:38;2.47;;;2.20;;
5022;SDS011;2530;47.990;7.866;2023-04-03T04:31:03;2.30;;;2.20;;
5022;SDS011;2530;47.990;7.866;2023-04-03T04:33:29;2.73;;;2.53;;
5022;SDS011;2530;47.990;7.866;2023-04-03T04:35:54;2.93;;;2.30;;
5022;SDS011;2530;47.990;7.866;2023-04-03T04:38:20;2.42;;;2.22;;
5022;SDS011;2530;47.990;7.866;2023-04-03T04:40:47;2.30;;;2.10;;
5022;SDS011;2530;47.990;7.866;2023-04-03T04:43:13;2.50;;;2.00;;
5022;SDS011;2530;47.990;7.866;2023-04-03T04:45:39;2.35;;;2.10;;
5022;SDS011;2530;47.990;7.866;2023-04-03T04:48:05;2.53;;;2.33;;
5022;SDS011;2530;47.990;7.866;2023-04-03T04:50:31;2.20;;;2.10;;
5022;SDS011;2530;47.990;7.866;2023-04-03T04:52:56;2.40;;;2.20;;
5022;SDS011;2530;47.990;7.866;2023-04-03T04:55:22;2.57;;;2.00;;
5022;SDS011;2530;47.990;7.866;2023-04-03T04:57:48;2.25;;;2.00;;
5022;SDS011;2530;47.990;7.866;2023-04-03T05:00:13;2.60;;;2.40;;
5022;SDS011;2530;47.990;7.866;2023-04-03T05:02:39;2.10;;;2.00;;
5022;SDS011;2530;47.990;7.866;2023-04-03T05:05:05;2.37;;;2.17;;
5022;SDS011;2530;47.990;7.866;2023-04-03T05:07:31;2.00;;;1.90;;
5022;SDS011;2530;47.990;7.866;2023-04-03T05:09:56;2.20;;;2.00;;
5022;SDS011;2530;47.990;7.866;2023-04-03T05:12:22;2.90;;;2.20;;
5022;SDS011;2530;47.990;7.866;2023-04-03T05:14:47;2.60;;;2.40;;
5022;SDS011;2530;47.990;7.866;2023-04-03T05:17:13;2.50;;;2.30;;
5022;SDS011;2530;47.990;7.866;2023-04-03T05:19:38;2.50;;;2.30;;
5022;SDS011;2530;47.990;7.866;2023-04-03T05:22:04;2.45;;;2.25;;
5022;SDS011;2530;47.990;7.866;2023-04-03T05:24:30;2.70;;;2.50;;
5022;SDS011;2530;47.990;7.866;2023-04-03T05:26:55;2.50;;;2.30;;
5022;SDS011;2530;47.990;7.866;2023-04-03T05:29:21;2.33;;;2.13;;
5022;SDS011;2530;47.990;7.866;2023-04-03T05:31:49;2.60;;;2.40;;
5022;SDS011;2530;47.990;7.866;2023-04-03T05:34:15;2.47;;;2.30;;
5022;SDS011;2530;47.990;7.866;2023-04-03T05:36:40;2.30;;;2.10;;
5022;SDS011;2530;47.990;7.866;2023-04-03T05:39:07;2.60;;;2.40;;
5022;SDS011;2530;47.990;7.866;2023-04-03T05:41:32;2.40;;;2.20;;
5022;SDS011;2530;47.990;7.866;2023-04-03T05:43:58;2.65;;;2.40;;
5022;SDS011;2530;47.990;7.866;2023-04-03T05:46:23;2.30;;;2.05;;
5022;SDS011;2530;47.990;7.866;2023-04-03T05:48:49;2.40;;;2.20;;
5022;SDS011;2530;47.990;7.866;2023-04-03T05:51:16;2.40;;;2.20;;
5022;SDS011;2530;47.990;7.866;2023-04-03T05:53:44;2.08;;;1.98;;
5022;SDS011;2530;47.990;7.866;2023-04-03T05:56:10;3.00;;;2.45;;
5022;SDS011;2530;47.990;7.866;2023-04-03T05:58:36;2.10;;;2.00;;
5022;SDS011;2530;47.990;7.866;2023-04-03T06:01:02;2.70;;;2.50;;
5022;SDS011;2530;47.990;7.866;2023-04-03T06:03:27;2.30;;;2.10;;
5022;SDS011;2530;47.990;7.866;2023-04-03T06:05:53;2.10;;;2.00;;
5022;SDS011;2530;47.990;7.866;2023-04-03T06:08:18;2.28;;;2.17;;
5022;SDS011;2530;47.990;7.866;2023-04-03T06:10:44;2.40;;;2.20;;
5022;SDS011;2530;47.990;7.866;2023-04-03T06:13:10;2.47;;;2.20;;
5022;SDS011;2530;47.990;7.866;2023-04-03T06:15:36;2.30;;;2.10;;
5022;SDS011;2530;47.990;7.866;2023-04-03T06:18:03;2.50;;;2.30;;
5022;SDS011;2530;47.990;7.866;2023-04-03T06:20:29;2.25;;;2.05;;
5022;SDS011;2530;47.990;7.866;2023-04-03T06:22:54;2.20;;;2.00;;
5022;SDS011;2530;47.990;7.866;2023-04-03T06:25:20;2.47;;;2.27;;
5022;SDS011;2530;47.990;7.866;2023-04-03T06:27:46;2.03;;;1.92;;
5022;SDS011;2530;47.990;7.866;2023-04-03T06:30:11;2.90;;;2.35;;
5022;SDS011;2530;47.990;7.866;2023-04-03T06:32:37;2.40;;;1.90;;
5022;SDS011;2530;47.990;7.866;2023-04-03T06:35:04;1.90;;;1.80;;
5022;SDS011;2530;47.990;7.866;2023-04-03T06:37:30;2.10;;;2.00;;
5022;SDS011;2530;47.990;7.866;2023-04-03T06:39:57;1.90;;;1.80;;
5022;SDS011;2530;47.990;7.866;2023-04-03T06:42:23;2.00;;;1.90;;
5022;SDS011;2530;47.990;7.866;2023-04-03T06:44:48;2.00;;;1.90;;
5022;SDS011;2530;47.990;7.866;2023-04-03T06:47:15;2.13;;;1.90;;
5022;SDS011;2530;47.990;7.866;2023-04-03T06:49:41;2.15;;;1.90;;
5022;SDS011;2530;47.990;7.866;2023-04-03T06:52:07;2.05;;;1.95;;
5022;SDS011;2530;47.990;7.866;2023-04-03T06:54:33;2.38;;;2.03;;
5022;SDS011;2530;47.990;7.866;2023-04-03T06:56:59;2.30;;;2.10;;
5022;SDS011;2530;47.990;7.866;2023-04-03T06:59:25;2.10;;;1.90;;
5022;SDS011;2530;47.990;7.866;2023-04-03T07:01:51;1.90;;;1.60;;
5022;SDS011;2530;47.990;7.866;2023-04-03T07:04:16;1.70;;;1.60;;
5022;SDS011;2530;47.990;7.866;2023-04-03T07:06:43;2.20;;;2.00;;
5022;SDS011;2530;47.990;7.866;2023-04-03T07:09:09;2.10;;;1.90;;
5022;SDS011;2530;47.990;7.866;2023-04-03T07:11:35;1.88;;;1.67;;
5022;SDS011;2530;47.990;7.866;2023-04-03T07:14:01;2.00;;;1.90;;
5022;SDS011;2530;47.990;7.866;2023-04-03T07:16:28;1.98;;;1.88;;
5022;SDS011;2530;47.990;7.866;2023-04-03T07:18:55;1.70;;;1.60;;
5022;SDS011;2530;47.990;7.866;2023-04-03T07:21:22;2.00;;;1.80;;
5022;SDS011;2530;47.990;7.866;2023-04-03T07:23:48;2.07;;;1.97;;
5022;SDS011;2530;47.990;7.866;2023-04-03T07:26:13;2.20;;;2.00;;
5022;SDS011;2530;47.990;7.866;2023-04-03T07:28:39;2.30;;;2.10;;
5022;SDS011;2530;47.990;7.866;2023-04-03T07:31:06;2.28;;;2.00;;
5022;SDS011;2530;47.990;7.866;2023-04-03T07:33:36;2.40;;;2.20;;
5022;SDS011;2530;47.990;7.866;2023-04-03T07:36:02;2.30;;;2.10;;
5022;SDS011;2530;47.990;7.866;2023-04-03T07:38:28;2.58;;;2.38;;
5022;SDS011;2530;47.990;7.866;2023-04-03T07:40:54;2.70;;;2.50;;
5022;SDS011;2530;47.990;7.866;2023-04-03T07:43:20;2.50;;;2.30;;
5022;SDS011;2530;47.990;7.866;2023-04-03T07:45:46;2.50;;;2.25;;
5022;SDS011;2530;47.990;7.866;2023-04-03T07:48:15;2.60;;;2.30;;
5022;SDS011;2530;47.990;7.866;2023-04-03T07:50:44;2.95;;;2.55;;
5022;SDS011;2530;47.990;7.866;2023-04-03T07:53:10;2.50;;;2.30;;
5022;SDS011;2530;47.990;7.866;2023-04-03T07:55:36;2.70;;;2.50;;
5022;SDS011;2530;47.990;7.866;2023-04-03T07:58:08;3.30;;;3.10;;
5022;SDS011;2530;47.990;7.866;2023-04-03T08:00:35;2.80;;;2.60;;
5022;SDS011;2530;47.990;7.866;2023-04-03T08:03:01;2.92;;;2.72;;
5022;SDS011;2530;47.990;7.866;2023-04-03T08:05:27;2.80;;;2.60;;
5022;SDS011;2530;47.990;7.866;2023-04-03T08:07:52;2.88;;;2.60;;
5022;SDS011;2530;47.990;7.866;2023-04-03T08:10:18;2.90;;;2.70;;
5022;SDS011;2530;47.990;7.866;2023-04-03T08:12:45;3.00;;;2.57;;
5022;SDS011;2530;47.990;7.866;2023-04-03T08:15:12;2.60;;;2.40;;
5022;SDS011;2530;47.990;7.866;2023-04-03T08:17:37;3.23;;;2.90;;
5022;SDS011;2530;47.990;7.866;2023-04-03T08:20:03;3.40;;;3.00;;
5022;SDS011;2530;47.990;7.866;2023-04-03T08:22:31;2.90;;;2.70;;
5022;SDS011;2530;47.990;7.866;2023-04-03T08:24:57;3.20;;;2.90;;
5022;SDS011;2530;47.990;7.866;2023-04-03T08:27:23;3.60;;;3.30;;
5022;SDS011;2530;47.990;7.866;2023-04-03T08:29:48;3.67;;;3.37;;
5022;SDS011;2530;47.990;7.866;2023-04-03T08:32:14;3.60;;;3.28;;
5022;SDS011;2530;47.990;7.866;2023-04-03T08:34:39;3.70;;;3.30;;
5022;SDS011;2530;47.990;7.866;2023-04-03T08:37:05;3.40;;;3.10;;
5022;SDS011;2530;47.990;7.866;2023-04-03T08:39:31;2.97;;;2.67;;
5022;SDS011;2530;47.990;7.866;2023-04-03T08:41:57;3.50;;;3.20;;
5022;SDS011;2530;47.990;7.866;2023-04-03T08:44:25;4.15;;;3.00;;
5022;SDS011;2530;47.990;7.866;2023-04-03T08:52:09;3.00;;;2.80;;
5022;SDS011;2530;47.990;7.866;2023-04-03T08:54:41;3.27;;;3.00;;
5022;SDS011;2530;47.990;7.866;2023-04-03T08:57:15;3.20;;;3.00;;
5022;SDS011;2530;47.990;7.866;2023-04-03T08:59:42;3.20;;;2.90;;
5022;SDS011;2530;47.990;7.866;2023-04-03T09:02:20;3.40;;;3.10;;
5022;SDS011;2530;47.990;7.866;2023-04-03T09:04:52;3.33;;;3.08;;
5022;SDS011;2530;47.990;7.866;2023-04-03T09:07:32;3.22;;;3.00;;
5022;SDS011;2530;47.990;7.866;2023-04-03T09:10:04;3.10;;;2.90;;
5022;SDS011;2530;47.990;7.866;2023-04-03T09:12:37;3.10;;;2.80;;
5022;SDS011;2530;47.990;7.866;2023-04-03T09:15:17;3.10;;;2.80;;
5022;SDS011;2530;47.990;7.866;2023-04-03T09:20:33;3.57;;;3.00;;
5022;SDS011;2530;47.990;7.866;2023-04-03T09:23:19;3.30;;;3.00;;
5022;SDS011;2530;47.990;7.866;2023-04-03T09:26:07;3.28;;;2.97;;
5022;SDS011;2530;47.990;7.866;2023-04-03T09:28:39;3.70;;;3.17;;
5022;SDS011;2530;47.990;7.866;2023-04-03T09:31:16;3.30;;;3.10;;
5022;SDS011;2530;47.990;7.866;2023-04-03T09:33:49;3.30;;;3.00;;
5022;SDS011;2530;47.990;7.866;2023-04-03T09:39:03;2.78;;;2.55;;
5022;SDS011;2530;47.990;7.866;2023-04-03T09:41:30;3.15;;;2.75;;
5022;SDS011;2530;47.990;7.866;2023-04-03T09:43:57;2.50;;;2.30;;
5022;SDS011;2530;47.990;7.866;2023-04-03T09:46:30;2.33;;;2.13;;
5022;SDS011;2530;47.990;7.866;2023-04-03T09:49:04;2.20;;;2.00;;
5022;SDS011;2530;47.990;7.866;2023-04-03T09:51:31;2.60;;;2.40;;
5022;SDS011;2530;47.990;7.866;2023-04-03T09:53:57;2.90;;;2.60;;
5022;SDS011;2530;47.990;7.866;2023-04-03T09:56:29;3.50;;;2.15;;
5022;SDS011;2530;47.990;7.866;2023-04-03T10:01:35;3.00;;;2.20;;
5022;SDS011;2530;47.990;7.866;2023-04-03T10:06:32;1.67;;;1.58;;
5022;SDS011;2530;47.990;7.866;2023-04-03T10:09:20;1.70;;;1.60;;
5022;SDS011;2530;47.990;7.866;2023-04-03T10:12:06;2.10;;;1.80;;
5022;SDS011;2530;47.990;7.866;2023-04-03T10:14:57;2.30;;;1.85;;
5022;SDS011;2530;47.990;7.866;2023-04-03T10:17:30;1.92;;;1.73;;
5022;SDS011;2530;47.990;7.866;2023-04-03T10:32:10;1.77;;;1.67;;
5022;SDS011;2530;47.990;7.866;2023-04-03T10:35:02;1.88;;;1.77;;
5022;SDS011;2530;47.990;7.866;2023-04-03T10:40:34;2.00;;;1.80;;
5022;SDS011;2530;47.990;7.866;2023-04-03T10:43:04;2.00;;;1.90;;
5022;SDS011;2530;47.990;7.866;2023-04-03T10:48:17;2.88;;;1.80;;
5022;SDS011;2530;47.990;7.866;2023-04-03T10:50:57;2.33;;;2.10;;
5022;SDS011;2530;47.990;7.866;2023-04-03T10:56:28;1.88;;;1.77;;
5022;SDS011;2530;47.990;7.866;2023-04-03T10:59:48;2.63;;;1.93;;
5022;SDS011;2530;47.990;7.866;2023-04-03T11:01:58;2.30;;;2.10;;
5022;SDS011;2530;47.990;7.866;2023-04-03T11:04:27;2.17;;;2.08;;
5022;SDS011;2530;47.990;7.866;2023-04-03T11:07:02;2.83;;;2.10;;
5022;SDS011;2530;47.990;7.866;2023-04-03T11:09:35;2.40;;;2.20;;
5022;SDS011;2530;47.990;7.866;2023-04-03T11:12:12;2.20;;;2.00;;
5022;SDS011;2530;47.990;7.866;2023-04-03T11:14:53;2.35;;;2.00;;
5022;SDS011;2530;47.990;7.866;2023-04-03T11:17:23;2.80;;;2.50;;
5022;SDS011;2530;47.990;7.866;2023-04-03T11:22:41;2.17;;;1.92;;
5022;SDS011;2530;47.990;7.866;2023-04-03T11:27:38;1.70;;;1.60;;
5022;SDS011;2530;47.990;7.866;2023-04-03T11:35:47;2.28;;;2.08;;
5022;SDS011;2530;47.990;7.866;2023-04-03T11:38:23;2.65;;;2.10;;
5022;SDS011;2530;47.990;7.866;2023-04-03T11:41:01;2.80;;;2.20;;
5022;SDS011;2530;47.990;7.866;2023-04-03T11:43:30;2.47;;;2.08;;
5022;SDS011;2530;47.990;7.866;2023-04-03T11:45:57;2.00;;;1.70;;
5022;SDS011;2530;47.990;7.866;2023-04-03T11:51:01;2.08;;;1.80;;
5022;SDS011;2530;47.990;7.866;2023-04-03T11:53:36;2.40;;;2.20;;
5022;SDS011;2530;47.990;7.866;2023-04-03T12:01:50;2.25;;;2.05;;
5022;SDS011;2530;47.990;7.866;2023-04-03T12:04:16;2.10;;;1.90;;
5022;SDS011;2530;47.990;7.866;2023-04-03T12:09:24;2.05;;;1.80;;
5022;SDS011;2530;47.990;7.866;2023-04-03T12:11:52;2.00;;;1.77;;
5022;SDS011;2530;47.990;7.866;2023-04-03T12:14:20;2.35;;;2.15;;
5022;SDS011;2530;47.990;7.866;2023-04-03T12:16:50;1.92;;;1.80;;
5022;SDS011;2530;47.990;7.866;2023-04-03T12:29:51;2.25;;;2.05;;
5022;SDS011;2530;47.990;7.866;2023-04-03T12:35:51;2.20;;;2.00;;
5022;SDS011;2530;47.990;7.866;2023-04-03T12:38:26;2.20;;;2.00;;
5022;SDS011;2530;47.990;7.866;2023-04-03T12:41:27;2.30;;;2.10;;
5022;SDS011;2530;47.990;7.866;2023-04-03T12:44:05;2.45;;;2.25;;
5022;SDS011;2530;47.990;7.866;2023-04-03T12:46:51;2.90;;;1.85;;
5022;SDS011;2530;47.990;7.866;2023-04-03T12:52:06;2.17;;;2.03;;
5022;SDS011;2530;47.990;7.866;2023-04-03T12:54:46;2.05;;;1.83;;
5022;SDS011;2530;47.990;7.866;2023-04-03T12:57:20;2.40;;;2.20;;
5022;SDS011;2530;47.990;7.866;2023-04-03T12:59:48;2.90;;;2.10;;
5022;SDS011;2530;47.990;7.866;2023-04-03T13:04:57;2.15;;;1.98;;
5022;SDS011;2530;47.990;7.866;2023-04-03T13:10:19;2.20;;;1.90;;
5022;SDS011;2530;47.990;7.866;2023-04-03T13:12:49;2.42;;;2.00;;
5022;SDS011;2530;47.990;7.866;2023-04-03T13:15:23;2.10;;;1.90;;
5022;SDS011;2530;47.990;7.866;2023-04-03T13:17:54;2.65;;;2.45;;
5022;SDS011;2530;47.990;7.866;2023-04-03T13:20:28;2.60;;;2.08;;
5022;SDS011;2530;47.990;7.866;2023-04-03T13:22:58;2.85;;;1.90;;
5022;SDS011;2530;47.990;7.866;2023-04-03T13:25:28;2.60;;;2.00;;
5022;SDS011;2530;47.990;7.866;2023-04-03T13:27:57;2.97;;;2.20;;
5022;SDS011;2530;47.990;7.866;2023-04-03T13:30:34;2.00;;;1.90;;
5022;SDS011;2530;47.990;7.866;2023-04-03T13:33:03;1.90;;;1.70;;
5022;SDS011;2530;47.990;7.866;2023-04-03T13:35:32;2.20;;;2.00;;
5022;SDS011;2530;47.990;7.866;2023-04-03T13:38:06;2.42;;;2.22;;
5022;SDS011;2530;47.990;7.866;2023-04-03T13:40:51;2.13;;;2.00;;
5022;SDS011;2530;47.990;7.866;2023-04-03T13:43:26;2.30;;;2.10;;
5022;SDS011;2530;47.990;7.866;2023-04-03T13:45:54;2.08;;;1.90;;
5022;SDS011;2530;47.990;7.866;2023-04-03T13:48:22;2.47;;;2.28;;
5022;SDS011;2530;47.990;7.866;2023-04-03T13:50:56;2.30;;;2.10;;
5022;SDS011;2530;47.990;7.866;2023-04-03T13:53:27;2.20;;;2.00;;
5022;SDS011;2530;47.990;7.866;2023-04-03T13:55:57;1.80;;;1.70;;
5022;SDS011;2530;47.990;7.866;2023-04-03T13:58:30;2.35;;;2.15;;
5022;SDS011;2530;47.990;7.866;2023-04-03T14:03:59;2.30;;;1.90;;
5022;SDS011;2530;47.990;7.866;2023-04-03T14:06:27;2.00;;;1.90;;
5022;SDS011;2530;47.990;7.866;2023-04-03T14:08:54;2.00;;;1.90;;
5022;SDS011;2530;47.990;7.866;2023-04-03T14:11:24;2.20;;;1.83;;
5022;SDS011;2530;47.990;7.866;2023-04-03T14:13:53;3.40;;;2.20;;
5022;SDS011;2530;47.990;7.866;2023-04-03T14:16:24;1.85;;;1.75;;
5022;SDS011;2530;47.990;7.866;2023-04-03T14:18:52;2.15;;;1.95;;
5022;SDS011;2530;47.990;7.866;2023-04-03T14:21:18;1.95;;;1.80;;
5022;SDS011;2530;47.990;7.866;2023-04-03T14:23:45;2.10;;;1.90;;
5022;SDS011;2530;47.990;7.866;2023-04-03T14:26:15;2.10;;;2.00;;
5022;SDS011;2530;47.990;7.866;2023-04-03T14:28:47;1.70;;;1.60;;
5022;SDS011;2530;47.990;7.866;2023-04-03T14:31:14;2.67;;;2.00;;
5022;SDS011;2530;47.990;7.866;2023-04-03T14:33:41;2.10;;;1.90;;
5022;SDS011;2530;47.990;7.866;2023-04-03T14:36:40;2.00;;;1.90;;
5022;SDS011;2530;47.990;7.866;2023-04-03T14:38:58;1.70;;;1.60;;
5022;SDS011;2530;47.990;7.866;2023-04-03T14:41:25;1.77;;;1.67;;
5022;SDS011;2530;47.990;7.866;2023-04-03T14:43:52;2.20;;;2.00;;
5022;SDS011;2530;47.990;7.866;2023-04-03T14:46:19;1.98;;;1.88;;
5022;SDS011;2530;47.990;7.866;2023-04-03T14:48:51;2.80;;;2.20;;
5022;SDS011;2530;47.990;7.866;2023-04-03T14:51:16;2.23;;;2.03;;
5022;SDS011;2530;47.990;7.866;2023-04-03T14:53:43;2.63;;;2.20;;
5022;SDS011;2530;47.990;7.866;2023-04-03T14:56:17;2.20;;;2.00;;
5022;SDS011;2530;47.990;7.866;2023-04-03T14:58:49;2.28;;;2.08;;
5022;SDS011;2530;47.990;7.866;2023-04-03T15:01:17;2.75;;;2.17;;
5022;SDS011;2530;47.990;7.866;2023-04-03T15:03:43;2.38;;;1.80;;
5022;SDS011;2530;47.990;7.866;2023-04-03T15:06:09;1.95;;;1.75;;
5022;SDS011;2530;47.990;7.866;2023-04-03T15:08:37;1.92;;;1.77;;
5022;SDS011;2530;47.990;7.866;2023-04-03T15:11:03;2.10;;;2.00;;
5022;SDS011;2530;47.990;7.866;2023-04-03T15:13:28;2.60;;;2.13;;
5022;SDS011;2530;47.990;7.866;2023-04-03T15:15:54;2.50;;;1.90;;
5022;SDS011;2530;47.990;7.866;2023-04-03T15:18:21;2.00;;;1.85;;
5022;SDS011;2530;47.990;7.866;2023-04-03T15:20:50;2.13;;;1.70;;
5022;SDS011;2530;47.990;7.866;2023-04-03T15:23:16;2.20;;;2.00;;
5022;SDS011;2530;47.990;7.866;2023-04-03T15:25:43;2.30;;;2.10;;
5022;SDS011;2530;47.990;7.866;2023-04-03T15:28:13;2.95;;;1.90;;
5022;SDS011;2530;47.990;7.866;2023-04-03T15:30:53;2.10;;;1.90;;
5022;SDS011;2530;47.990;7.866;2023-04-03T15:33:19;2.20;;;2.00;;
5022;SDS011;2530;47.990;7.866;2023-04-03T15:35:45;2.40;;;2.00;;
5022;SDS011;2530;47.990;7.866;2023-04-03T15:38:11;2.77;;;2.03;;
5022;SDS011;2530;47.990;7.866;2023-04-03T15:40:37;1.95;;;1.70;;
5022;SDS011;2530;47.990;7.866;2023-04-03T15:43:04;2.40;;;2.00;;
5022;SDS011;2530;47.990;7.866;2023-04-03T15:45:31;2.47;;;1.80;;
5022;SDS011;2530;47.990;7.866;2023-04-03T15:47:58;2.30;;;2.00;;
5022;SDS011;2530;47.990;7.866;2023-04-03T15:50:24;1.90;;;1.80;;
5022;SDS011;2530;47.990;7.866;2023-04-03T15:52:51;3.08;;;1.80;;
5022;SDS011;2530;47.990;7.866;2023-04-03T15:55:22;2.60;;;2.20;;
5022;SDS011;2530;47.990;7.866;2023-04-03T15:57:48;2.35;;;2.10;;
5022;SDS011;2530;47.990;7.866;2023-04-03T16:00:14;2.00;;;1.80;;
5022;SDS011;2530;47.990;7.866;2023-04-03T16:02:40;2.63;;;2.15;;
5022;SDS011;2530;47.990;7.866;2023-04-03T16:05:08;2.15;;;1.90;;
5022;SDS011;2530;47.990;7.866;2023-04-03T16:07:36;2.33;;;2.13;;
5022;SDS011;2530;47.990;7.866;2023-04-03T16:10:03;2.60;;;2.10;;
5022;SDS011;2530;47.990;7.866;2023-04-03T16:12:29;2.50;;;2.00;;
5022;SDS011;2530;47.990;7.866;2023-04-03T16:14:55;2.10;;;1.90;;
5022;SDS011;2530;47.990;7.866;2023-04-03T16:17:20;2.45;;;2.10;;
5022;SDS011;2530;47.990;7.866;2023-04-03T16:19:46;2.28;;;2.08;;
5022;SDS011;2530;47.990;7.866;2023-04-03T16:22:12;2.03;;;1.83;;
5022;SDS011;2530;47.990;7.866;2023-04-03T16:24:37;2.10;;;1.90;;
5022;SDS011;2530;47.990;7.866;2023-04-03T16:27:03;2.42;;;2.10;;
5022;SDS011;2530;47.990;7.866;2023-04-03T16:29:29;2.20;;;1.90;;
5022;SDS011;2530;47.990;7.866;2023-04-03T16:31:55;2.17;;;1.90;;
5022;SDS011;2530;47.990;7.866;2023-04-03T16:34:22;2.30;;;1.80;;
5022;SDS011;2530;47.990;7.866;2023-04-03T16:36:48;2.20;;;1.85;;
5022;SDS011;2530;47.990;7.866;2023-04-03T16:39:13;2.10;;;1.90;;
5022;SDS011;2530;47.990;7.866;2023-04-03T16:41:39;2.20;;;1.70;;
5022;SDS011;2530;47.990;7.866;2023-04-03T16:44:05;2.30;;;2.10;;
5022;SDS011;2530;47.990;7.866;2023-04-03T16:46:32;2.30;;;2.10;;
5022;SDS011;2530;47.990;7.866;2023-04-03T16:48:57;2.77;;;1.90;;
5022;SDS011;2530;47.990;7.866;2023-04-03T16:51:23;2.40;;;2.03;;